sensor_id;sensor_type;location;lat;lon;timestamp;temperature;humidity
51884;DHT22;37915;53.254;6.598;2022-07-17T00:00:36;13.60;99.90
51884;DHT22;37915;53.254;6.598;2022-07-17T00:03:01;13.50;99.90
51884;DHT22;37915;53.254;6.598;2022-07-17T00:05:27;13.50;99.90
51884;DHT22;37915;53.254;6.598;2022-07-17T00:07:53;13.50;99.90
51884;DHT22;37915;53.254;6.598;2022-07-17T00:10:18;13.40;99.90
51884;DHT22;37915;53.254;6.598;2022-07-17T00:12:44;13.40;99.90
51884;DHT22;37915;53.254;6.598;2022-07-17T00:15:09;13.30;99.90
51884;DHT22;37915;53.254;6.598;2022-07-17T00:17:35;13.30;99.90
51884;DHT22;37915;53.254;6.598;2022-07-17T00:20:01;13.20;99.90
51884;DHT22;37915;53.254;6.598;2022-07-17T00:22:26;13.20;99.90
51884;DHT22;37915;53.254;6.598;2022-07-17T00:24:53;13.10;99.90
51884;DHT22;37915;53.254;6.598;2022-07-17T00:27:18;13.10;99.90
51884;DHT22;37915;53.254;6.598;2022-07-17T00:29:44;13.10;99.90
51884;DHT22;37915;53.254;6.598;2022-07-17T00:32:10;13.00;99.90
51884;DHT22;37915;53.254;6.598;2022-07-17T00:34:35;13.00;99.90
51884;DHT22;37915;53.254;6.598;2022-07-17T00:37:01;12.90;99.90
51884;DHT22;37915;53.254;6.598;2022-07-17T00:39:26;12.90;99.90
51884;DHT22;37915;53.254;6.598;2022-07-17T00:41:52;12.90;99.90
51884;DHT22;37915;53.254;6.598;2022-07-17T00:44:17;12.80;99.90
51884;DHT22;37915;53.254;6.598;2022-07-17T00:46:43;12.80;99.90
51884;DHT22;37915;53.254;6.598;2022-07-17T00:49:08;12.80;99.90
51884;DHT22;37915;53.254;6.598;2022-07-17T00:51:34;12.70;99.90
51884;DHT22;37915;53.254;6.598;2022-07-17T00:54:00;12.70;99.90
51884;DHT22;37915;53.254;6.598;2022-07-17T00:56:26;12.70;99.90
51884;DHT22;37915;53.254;6.598;2022-07-17T00:58:52;12.70;99.90
51884;DHT22;37915;53.254;6.598;2022-07-17T01:01:17;12.70;99.90
51884;DHT22;37915;53.254;6.598;2022-07-17T01:03:43;12.70;99.90
51884;DHT22;37915;53.254;6.598;2022-07-17T01:06:09;12.60;99.90
51884;DHT22;37915;53.254;6.598;2022-07-17T01:08:35;12.60;99.90
51884;DHT22;37915;53.254;6.598;2022-07-17T01:11:01;12.60;99.90
51884;DHT22;37915;53.254;6.598;2022-07-17T01:13:27;12.60;99.90
51884;DHT22;37915;53.254;6.598;2022-07-17T01:15:53;12.60;99.90
51884;DHT22;37915;53.254;6.598;2022-07-17T01:18:19;12.50;99.90
51884;DHT22;37915;53.254;6.598;2022-07-17T01:20:46;12.60;99.90
51884;DHT22;37915;53.254;6.598;2022-07-17T01:23:12;12.50;99.90
51884;DHT22;37915;53.254;6.598;2022-07-17T01:25:38;12.50;99.90
51884;DHT22;37915;53.254;6.598;2022-07-17T01:28:04;12.40;99.90
51884;DHT22;37915;53.254;6.598;2022-07-17T01:30:30;12.40;99.90
51884;DHT22;37915;53.254;6.598;2022-07-17T01:32:55;12.40;99.90
51884;DHT22;37915;53.254;6.598;2022-07-17T01:35:21;12.40;99.90
51884;DHT22;37915;53.254;6.598;2022-07-17T01:37:47;12.30;99.90
51884;DHT22;37915;53.254;6.598;2022-07-17T01:40:13;12.40;99.90
51884;DHT22;37915;53.254;6.598;2022-07-17T01:42:41;12.30;99.90
51884;DHT22;37915;53.254;6.598;2022-07-17T01:45:07;12.40;99.90
51884;DHT22;37915;53.254;6.598;2022-07-17T01:47:33;12.30;99.90
51884;DHT22;37915;53.254;6.598;2022-07-17T01:50:00;12.30;99.90
51884;DHT22;37915;53.254;6.598;2022-07-17T01:52:26;12.30;99.90
51884;DHT22;37915;53.254;6.598;2022-07-17T01:54:52;12.30;99.90
51884;DHT22;37915;53.254;6.598;2022-07-17T01:57:18;12.40;99.90
51884;DHT22;37915;53.254;6.598;2022-07-17T01:59:44;12.40;99.90
51884;DHT22;37915;53.254;6.598;2022-07-17T02:02:09;12.40;99.90
51884;DHT22;37915;53.254;6.598;2022-07-17T02:04:36;12.40;99.90
51884;DHT22;37915;53.254;6.598;2022-07-17T02:07:02;12.40;99.90
51884;DHT22;37915;53.254;6.598;2022-07-17T02:09:28;12.50;99.90
51884;DHT22;37915;53.254;6.598;2022-07-17T02:11:54;12.50;99.90
51884;DHT22;37915;53.254;6.598;2022-07-17T02:14:19;12.50;99.90
51884;DHT22;37915;53.254;6.598;2022-07-17T02:16:45;12.50;99.90
51884;DHT22;37915;53.254;6.598;2022-07-17T02:19:11;12.50;99.90
51884;DHT22;37915;53.254;6.598;2022-07-17T02:21:37;12.50;99.90
51884;DHT22;37915;53.254;6.598;2022-07-17T02:24:02;12.50;99.90
51884;DHT22;37915;53.254;6.598;2022-07-17T02:26:28;12.50;99.90
51884;DHT22;37915;53.254;6.598;2022-07-17T02:28:53;12.40;99.90
51884;DHT22;37915;53.254;6.598;2022-07-17T02:31:20;12.40;99.90
51884;DHT22;37915;53.254;6.598;2022-07-17T02:33:45;12.30;99.90
51884;DHT22;37915;53.254;6.598;2022-07-17T02:36:11;12.30;99.90
51884;DHT22;37915;53.254;6.598;2022-07-17T02:38:37;12.30;99.90
51884;DHT22;37915;53.254;6.598;2022-07-17T02:41:02;12.30;99.90
51884;DHT22;37915;53.254;6.598;2022-07-17T02:43:28;12.20;99.90
51884;DHT22;37915;53.254;6.598;2022-07-17T02:45:53;12.20;99.90
51884;DHT22;37915;53.254;6.598;2022-07-17T02:48:19;12.20;99.90
51884;DHT22;37915;53.254;6.598;2022-07-17T02:50:44;12.10;99.90
51884;DHT22;37915;53.254;6.598;2022-07-17T02:53:10;12.10;99.90
51884;DHT22;37915;53.254;6.598;2022-07-17T02:55:35;12.10;99.90
51884;DHT22;37915;53.254;6.598;2022-07-17T02:58:01;12.10;99.90
51884;DHT22;37915;53.254;6.598;2022-07-17T03:00:27;12.10;99.90
51884;DHT22;37915;53.254;6.598;2022-07-17T03:02:53;12.10;99.90
51884;DHT22;37915;53.254;6.598;2022-07-17T03:05:19;12.10;99.90
51884;DHT22;37915;53.254;6.598;2022-07-17T03:07:45;12.20;99.90
51884;DHT22;37915;53.254;6.598;2022-07-17T03:10:10;12.20;99.90
51884;DHT22;37915;53.254;6.598;2022-07-17T03:12:36;12.20;99.90
51884;DHT22;37915;53.254;6.598;2022-07-17T03:15:02;12.20;99.90
51884;DHT22;37915;53.254;6.598;2022-07-17T03:17:28;12.20;99.90
51884;DHT22;37915;53.254;6.598;2022-07-17T03:19:54;12.20;99.90
51884;DHT22;37915;53.254;6.598;2022-07-17T03:22:19;12.20;99.90
51884;DHT22;37915;53.254;6.598;2022-07-17T03:24:45;12.20;99.90
51884;DHT22;37915;53.254;6.598;2022-07-17T03:27:10;12.30;99.90
51884;DHT22;37915;53.254;6.598;2022-07-17T03:29:36;12.30;99.90
51884;DHT22;37915;53.254;6.598;2022-07-17T03:32:01;12.20;99.90
51884;DHT22;37915;53.254;6.598;2022-07-17T03:34:27;12.30;99.90
51884;DHT22;37915;53.254;6.598;2022-07-17T03:36:53;12.30;99.90
51884;DHT22;37915;53.254;6.598;2022-07-17T03:39:18;12.20;99.90
51884;DHT22;37915;53.254;6.598;2022-07-17T03:41:44;12.30;99.90
51884;DHT22;37915;53.254;6.598;2022-07-17T03:44:09;12.30;99.90
51884;DHT22;37915;53.254;6.598;2022-07-17T03:46:35;12.30;99.90
51884;DHT22;37915;53.254;6.598;2022-07-17T03:49:00;12.30;99.90
51884;DHT22;37915;53.254;6.598;2022-07-17T03:51:26;12.40;99.90
51884;DHT22;37915;53.254;6.598;2022-07-17T03:53:52;12.40;99.90
51884;DHT22;37915;53.254;6.598;2022-07-17T03:56:17;12.50;99.90
51884;DHT22;37915;53.254;6.598;2022-07-17T03:58:43;12.50;99.90
51884;DHT22;37915;53.254;6.598;2022-07-17T04:01:08;12.50;99.90
51884;DHT22;37915;53.254;6.598;2022-07-17T04:03:34;12.50;99.90
51884;DHT22;37915;53.254;6.598;2022-07-17T04:06:00;12.50;99.90
51884;DHT22;37915;53.254;6.598;2022-07-17T04:08:25;12.50;99.90
51884;DHT22;37915;53.254;6.598;2022-07-17T04:10:51;12.60;99.90
51884;DHT22;37915;53.254;6.598;2022-07-17T04:13:16;12.60;99.90
51884;DHT22;37915;53.254;6.598;2022-07-17T04:15:42;12.60;99.90
51884;DHT22;37915;53.254;6.598;2022-07-17T04:18:32;12.70;99.90
51884;DHT22;37915;53.254;6.598;2022-07-17T04:20:59;12.70;99.90
51884;DHT22;37915;53.254;6.598;2022-07-17T04:23:25;12.70;99.90
51884;DHT22;37915;53.254;6.598;2022-07-17T04:25:50;12.80;99.90
51884;DHT22;37915;53.254;6.598;2022-07-17T04:28:16;12.80;99.90
51884;DHT22;37915;53.254;6.598;2022-07-17T04:30:41;12.80;99.90
51884;DHT22;37915;53.254;6.598;2022-07-17T04:33:07;12.90;99.90
51884;DHT22;37915;53.254;6.598;2022-07-17T04:35:33;12.90;99.90
51884;DHT22;37915;53.254;6.598;2022-07-17T04:37:59;12.90;99.90
51884;DHT22;37915;53.254;6.598;2022-07-17T04:40:24;12.90;99.90
51884;DHT22;37915;53.254;6.598;2022-07-17T04:42:50;12.90;99.90
51884;DHT22;37915;53.254;6.598;2022-07-17T04:45:15;13.00;99.90
51884;DHT22;37915;53.254;6.598;2022-07-17T04:47:41;13.00;99.90
51884;DHT22;37915;53.254;6.598;2022-07-17T04:50:07;13.00;99.90
51884;DHT22;37915;53.254;6.598;2022-07-17T04:52:33;13.10;99.90
51884;DHT22;37915;53.254;6.598;2022-07-17T04:54:58;13.10;99.90
51884;DHT22;37915;53.254;6.598;2022-07-17T04:57:24;13.10;99.90
51884;DHT22;37915;53.254;6.598;2022-07-17T04:59:50;13.10;99.90
51884;DHT22;37915;53.254;6.598;2022-07-17T05:02:15;13.20;99.90
51884;DHT22;37915;53.254;6.598;2022-07-17T05:04:41;13.20;99.90
51884;DHT22;37915;53.254;6.598;2022-07-17T05:07:06;13.20;99.90
51884;DHT22;37915;53.254;6.598;2022-07-17T05:09:32;13.30;99.90
51884;DHT22;37915;53.254;6.598;2022-07-17T05:11:57;13.30;99.90
51884;DHT22;37915;53.254;6.598;2022-07-17T05:14:23;13.40;99.90
51884;DHT22;37915;53.254;6.598;2022-07-17T05:16:49;13.40;99.90
51884;DHT22;37915;53.254;6.598;2022-07-17T05:19:14;13.40;99.90
51884;DHT22;37915;53.254;6.598;2022-07-17T05:21:40;13.50;99.90
51884;DHT22;37915;53.254;6.598;2022-07-17T05:24:05;13.50;99.90
51884;DHT22;37915;53.254;6.598;2022-07-17T05:26:31;13.50;99.90
51884;DHT22;37915;53.254;6.598;2022-07-17T05:28:57;13.50;99.90
51884;DHT22;37915;53.254;6.598;2022-07-17T05:31:22;13.50;99.90
51884;DHT22;37915;53.254;6.598;2022-07-17T05:33:48;13.60;99.90
51884;DHT22;37915;53.254;6.598;2022-07-17T05:36:13;13.60;99.90
51884;DHT22;37915;53.254;6.598;2022-07-17T05:38:39;13.70;99.90
51884;DHT22;37915;53.254;6.598;2022-07-17T05:41:04;13.70;99.90
51884;DHT22;37915;53.254;6.598;2022-07-17T05:43:30;13.80;99.90
51884;DHT22;37915;53.254;6.598;2022-07-17T05:45:56;13.90;99.90
51884;DHT22;37915;53.254;6.598;2022-07-17T05:48:22;14.00;99.90
51884;DHT22;37915;53.254;6.598;2022-07-17T05:50:48;14.00;99.90
51884;DHT22;37915;53.254;6.598;2022-07-17T05:53:13;14.10;99.90
51884;DHT22;37915;53.254;6.598;2022-07-17T05:55:40;14.20;99.90
51884;DHT22;37915;53.254;6.598;2022-07-17T05:58:05;14.20;99.90
51884;DHT22;37915;53.254;6.598;2022-07-17T06:00:31;14.30;99.90
51884;DHT22;37915;53.254;6.598;2022-07-17T06:02:57;14.40;99.90
51884;DHT22;37915;53.254;6.598;2022-07-17T06:05:22;14.50;99.90
51884;DHT22;37915;53.254;6.598;2022-07-17T06:07:48;14.60;99.90
51884;DHT22;37915;53.254;6.598;2022-07-17T06:10:13;14.70;99.90
51884;DHT22;37915;53.254;6.598;2022-07-17T06:12:39;14.70;99.90
51884;DHT22;37915;53.254;6.598;2022-07-17T06:15:05;14.80;99.90
51884;DHT22;37915;53.254;6.598;2022-07-17T06:17:30;14.90;99.90
51884;DHT22;37915;53.254;6.598;2022-07-17T06:19:56;15.00;99.90
51884;DHT22;37915;53.254;6.598;2022-07-17T06:22:21;15.10;99.90
51884;DHT22;37915;53.254;6.598;2022-07-17T06:24:47;15.20;99.90
51884;DHT22;37915;53.254;6.598;2022-07-17T06:27:13;15.30;99.90
51884;DHT22;37915;53.254;6.598;2022-07-17T06:29:39;15.30;99.90
51884;DHT22;37915;53.254;6.598;2022-07-17T06:32:05;15.40;99.90
51884;DHT22;37915;53.254;6.598;2022-07-17T06:34:30;15.50;99.90
51884;DHT22;37915;53.254;6.598;2022-07-17T06:36:56;15.50;99.90
51884;DHT22;37915;53.254;6.598;2022-07-17T06:39:22;15.60;99.90
51884;DHT22;37915;53.254;6.598;2022-07-17T06:41:47;15.60;99.90
51884;DHT22;37915;53.254;6.598;2022-07-17T06:44:13;15.60;99.90
51884;DHT22;37915;53.254;6.598;2022-07-17T06:46:38;15.70;99.90
51884;DHT22;37915;53.254;6.598;2022-07-17T06:49:04;15.70;99.90
51884;DHT22;37915;53.254;6.598;2022-07-17T06:51:29;15.60;99.90
51884;DHT22;37915;53.254;6.598;2022-07-17T06:53:55;15.60;99.90
51884;DHT22;37915;53.254;6.598;2022-07-17T06:56:20;15.70;99.90
51884;DHT22;37915;53.254;6.598;2022-07-17T06:58:46;15.60;99.90
51884;DHT22;37915;53.254;6.598;2022-07-17T07:01:11;15.70;99.90
51884;DHT22;37915;53.254;6.598;2022-07-17T07:03:37;15.80;99.90
51884;DHT22;37915;53.254;6.598;2022-07-17T07:06:03;15.80;99.90
51884;DHT22;37915;53.254;6.598;2022-07-17T07:08:28;15.90;99.90
51884;DHT22;37915;53.254;6.598;2022-07-17T07:10:54;15.90;99.90
51884;DHT22;37915;53.254;6.598;2022-07-17T07:13:19;15.90;99.90
51884;DHT22;37915;53.254;6.598;2022-07-17T07:15:45;16.00;99.90
51884;DHT22;37915;53.254;6.598;2022-07-17T07:18:11;16.00;99.90
51884;DHT22;37915;53.254;6.598;2022-07-17T07:20:36;16.00;99.90
51884;DHT22;37915;53.254;6.598;2022-07-17T07:23:02;16.10;99.90
51884;DHT22;37915;53.254;6.598;2022-07-17T07:25:27;16.20;99.90
51884;DHT22;37915;53.254;6.598;2022-07-17T07:27:53;16.20;99.90
51884;DHT22;37915;53.254;6.598;2022-07-17T07:30:19;16.30;99.90
51884;DHT22;37915;53.254;6.598;2022-07-17T07:32:44;16.40;99.90
51884;DHT22;37915;53.254;6.598;2022-07-17T07:35:10;16.40;99.90
51884;DHT22;37915;53.254;6.598;2022-07-17T07:37:36;16.50;99.90
51884;DHT22;37915;53.254;6.598;2022-07-17T07:40:02;16.60;99.90
51884;DHT22;37915;53.254;6.598;2022-07-17T07:42:28;16.60;99.90
51884;DHT22;37915;53.254;6.598;2022-07-17T07:44:54;16.70;99.90
51884;DHT22;37915;53.254;6.598;2022-07-17T07:47:19;16.70;99.90
51884;DHT22;37915;53.254;6.598;2022-07-17T07:49:45;16.80;99.90
51884;DHT22;37915;53.254;6.598;2022-07-17T07:52:11;16.90;99.90
51884;DHT22;37915;53.254;6.598;2022-07-17T07:54:36;16.80;99.90
51884;DHT22;37915;53.254;6.598;2022-07-17T07:57:02;16.80;99.90
51884;DHT22;37915;53.254;6.598;2022-07-17T07:59:31;16.90;99.90
51884;DHT22;37915;53.254;6.598;2022-07-17T08:02:00;16.90;99.90
51884;DHT22;37915;53.254;6.598;2022-07-17T08:04:26;16.90;99.90
51884;DHT22;37915;53.254;6.598;2022-07-17T08:06:52;17.00;99.90
51884;DHT22;37915;53.254;6.598;2022-07-17T08:09:17;17.00;99.90
51884;DHT22;37915;53.254;6.598;2022-07-17T08:11:43;17.30;99.90
51884;DHT22;37915;53.254;6.598;2022-07-17T08:14:10;17.40;99.90
51884;DHT22;37915;53.254;6.598;2022-07-17T08:16:36;17.70;99.90
51884;DHT22;37915;53.254;6.598;2022-07-17T08:19:01;17.90;99.90
51884;DHT22;37915;53.254;6.598;2022-07-17T08:21:27;18.10;99.90
51884;DHT22;37915;53.254;6.598;2022-07-17T08:23:53;18.40;99.90
51884;DHT22;37915;53.254;6.598;2022-07-17T08:26:19;18.50;99.90
51884;DHT22;37915;53.254;6.598;2022-07-17T08:28:44;18.70;99.90
51884;DHT22;37915;53.254;6.598;2022-07-17T08:31:10;18.70;99.90
51884;DHT22;37915;53.254;6.598;2022-07-17T08:33:35;18.80;99.90
51884;DHT22;37915;53.254;6.598;2022-07-17T08:36:01;19.00;99.90
51884;DHT22;37915;53.254;6.598;2022-07-17T08:38:27;19.20;99.90
51884;DHT22;37915;53.254;6.598;2022-07-17T08:40:53;19.30;99.90
51884;DHT22;37915;53.254;6.598;2022-07-17T08:43:19;19.20;99.90
51884;DHT22;37915;53.254;6.598;2022-07-17T08:45:45;19.20;99.90
51884;DHT22;37915;53.254;6.598;2022-07-17T08:48:13;19.30;99.90
51884;DHT22;37915;53.254;6.598;2022-07-17T08:50:39;19.40;99.90
51884;DHT22;37915;53.254;6.598;2022-07-17T08:53:05;19.50;99.90
51884;DHT22;37915;53.254;6.598;2022-07-17T08:55:31;19.70;99.90
51884;DHT22;37915;53.254;6.598;2022-07-17T08:57:57;19.70;99.90
51884;DHT22;37915;53.254;6.598;2022-07-17T09:00:23;19.80;99.90
51884;DHT22;37915;53.254;6.598;2022-07-17T09:02:53;19.90;99.90
51884;DHT22;37915;53.254;6.598;2022-07-17T09:05:23;19.90;99.90
51884;DHT22;37915;53.254;6.598;2022-07-17T09:07:49;20.10;99.90
51884;DHT22;37915;53.254;6.598;2022-07-17T09:10:14;20.00;99.90
51884;DHT22;37915;53.254;6.598;2022-07-17T09:12:40;20.10;99.90
51884;DHT22;37915;53.254;6.598;2022-07-17T09:15:16;20.40;99.90
51884;DHT22;37915;53.254;6.598;2022-07-17T09:17:54;20.80;99.90
51884;DHT22;37915;53.254;6.598;2022-07-17T09:20:20;20.90;99.90
51884;DHT22;37915;53.254;6.598;2022-07-17T09:22:59;20.90;99.90
51884;DHT22;37915;53.254;6.598;2022-07-17T09:25:32;20.80;99.90
51884;DHT22;37915;53.254;6.598;2022-07-17T09:27:59;20.60;99.90
51884;DHT22;37915;53.254;6.598;2022-07-17T09:30:25;20.70;99.90
51884;DHT22;37915;53.254;6.598;2022-07-17T09:32:54;20.90;99.90
51884;DHT22;37915;53.254;6.598;2022-07-17T09:35:20;21.00;99.90
51884;DHT22;37915;53.254;6.598;2022-07-17T09:37:46;21.20;99.90
51884;DHT22;37915;53.254;6.598;2022-07-17T09:40:13;21.40;99.90
51884;DHT22;37915;53.254;6.598;2022-07-17T09:43:01;21.60;99.90
51884;DHT22;37915;53.254;6.598;2022-07-17T09:45:27;21.80;99.90
51884;DHT22;37915;53.254;6.598;2022-07-17T09:47:53;21.90;99.90
51884;DHT22;37915;53.254;6.598;2022-07-17T09:50:19;22.00;99.90
51884;DHT22;37915;53.254;6.598;2022-07-17T09:52:45;22.10;99.90
51884;DHT22;37915;53.254;6.598;2022-07-17T09:55:10;22.30;99.90
51884;DHT22;37915;53.254;6.598;2022-07-17T09:57:36;22.50;99.90
51884;DHT22;37915;53.254;6.598;2022-07-17T10:00:05;22.50;99.90
51884;DHT22;37915;53.254;6.598;2022-07-17T10:02:32;22.30;99.90
51884;DHT22;37915;53.254;6.598;2022-07-17T10:04:58;22.40;99.90
51884;DHT22;37915;53.254;6.598;2022-07-17T10:07:24;22.60;99.90
51884;DHT22;37915;53.254;6.598;2022-07-17T10:09:50;22.90;99.90
51884;DHT22;37915;53.254;6.598;2022-07-17T10:12:15;23.00;99.90
51884;DHT22;37915;53.254;6.598;2022-07-17T10:14:42;23.00;99.90
51884;DHT22;37915;53.254;6.598;2022-07-17T10:19:33;23.20;99.90
51884;DHT22;37915;53.254;6.598;2022-07-17T10:21:59;23.40;99.90
51884;DHT22;37915;53.254;6.598;2022-07-17T10:24:26;23.60;99.90
51884;DHT22;37915;53.254;6.598;2022-07-17T10:26:52;23.60;99.90
51884;DHT22;37915;53.254;6.598;2022-07-17T10:29:28;23.70;99.90
51884;DHT22;37915;53.254;6.598;2022-07-17T10:31:54;23.60;99.90
51884;DHT22;37915;53.254;6.598;2022-07-17T10:34:41;23.40;99.90
51884;DHT22;37915;53.254;6.598;2022-07-17T10:39:50;23.10;99.90
51884;DHT22;37915;53.254;6.598;2022-07-17T10:42:17;23.20;99.90
51884;DHT22;37915;53.254;6.598;2022-07-17T10:45:09;23.40;99.90
51884;DHT22;37915;53.254;6.598;2022-07-17T10:47:45;23.70;99.90
51884;DHT22;37915;53.254;6.598;2022-07-17T10:50:11;23.80;99.90
51884;DHT22;37915;53.254;6.598;2022-07-17T10:52:37;23.90;99.90
51884;DHT22;37915;53.254;6.598;2022-07-17T10:55:03;23.90;99.90
51884;DHT22;37915;53.254;6.598;2022-07-17T10:57:31;24.00;99.90
51884;DHT22;37915;53.254;6.598;2022-07-17T10:59:56;24.10;99.90
51884;DHT22;37915;53.254;6.598;2022-07-17T11:02:31;24.00;97.60
51884;DHT22;37915;53.254;6.598;2022-07-17T11:05:07;24.00;99.90
51884;DHT22;37915;53.254;6.598;2022-07-17T11:07:32;24.00;98.50
51884;DHT22;37915;53.254;6.598;2022-07-17T11:09:58;24.00;99.20
51884;DHT22;37915;53.254;6.598;2022-07-17T11:12:33;24.10;99.00
51884;DHT22;37915;53.254;6.598;2022-07-17T11:15:00;24.30;99.70
51884;DHT22;37915;53.254;6.598;2022-07-17T11:17:25;24.40;99.90
51884;DHT22;37915;53.254;6.598;2022-07-17T11:19:51;24.50;99.60
51884;DHT22;37915;53.254;6.598;2022-07-17T11:22:21;24.60;97.50
51884;DHT22;37915;53.254;6.598;2022-07-17T11:24:47;24.60;97.90
51884;DHT22;37915;53.254;6.598;2022-07-17T11:27:20;24.60;96.40
51884;DHT22;37915;53.254;6.598;2022-07-17T11:29:46;24.50;98.20
51884;DHT22;37915;53.254;6.598;2022-07-17T11:32:12;24.30;97.50
51884;DHT22;37915;53.254;6.598;2022-07-17T11:34:38;24.40;96.80
51884;DHT22;37915;53.254;6.598;2022-07-17T11:37:04;24.50;96.10
51884;DHT22;37915;53.254;6.598;2022-07-17T11:39:40;24.40;96.20
51884;DHT22;37915;53.254;6.598;2022-07-17T11:42:07;24.30;95.00
51884;DHT22;37915;53.254;6.598;2022-07-17T11:44:33;24.20;96.40
51884;DHT22;37915;53.254;6.598;2022-07-17T11:46:58;24.00;96.60
51884;DHT22;37915;53.254;6.598;2022-07-17T11:49:34;24.10;96.60
51884;DHT22;37915;53.254;6.598;2022-07-17T11:52:10;24.20;97.20
51884;DHT22;37915;53.254;6.598;2022-07-17T11:54:43;24.30;96.60
51884;DHT22;37915;53.254;6.598;2022-07-17T11:57:09;24.50;96.70
51884;DHT22;37915;53.254;6.598;2022-07-17T11:59:34;24.60;94.90
51884;DHT22;37915;53.254;6.598;2022-07-17T12:02:10;24.70;95.40
51884;DHT22;37915;53.254;6.598;2022-07-17T12:04:47;24.90;95.60
51884;DHT22;37915;53.254;6.598;2022-07-17T12:07:12;25.10;95.90
51884;DHT22;37915;53.254;6.598;2022-07-17T12:09:38;25.30;95.20
51884;DHT22;37915;53.254;6.598;2022-07-17T12:12:04;25.50;95.20
51884;DHT22;37915;53.254;6.598;2022-07-17T12:14:29;25.60;94.30
51884;DHT22;37915;53.254;6.598;2022-07-17T12:16:55;25.60;94.70
51884;DHT22;37915;53.254;6.598;2022-07-17T12:19:22;25.50;95.00
51884;DHT22;37915;53.254;6.598;2022-07-17T12:21:53;25.70;93.70
51884;DHT22;37915;53.254;6.598;2022-07-17T12:24:31;25.60;93.40
51884;DHT22;37915;53.254;6.598;2022-07-17T12:26:58;25.70;93.60
51884;DHT22;37915;53.254;6.598;2022-07-17T12:29:24;25.90;94.30
51884;DHT22;37915;53.254;6.598;2022-07-17T12:32:00;26.00;94.10
51884;DHT22;37915;53.254;6.598;2022-07-17T12:34:26;26.00;93.00
51884;DHT22;37915;53.254;6.598;2022-07-17T12:36:51;26.00;93.00
51884;DHT22;37915;53.254;6.598;2022-07-17T12:39:17;26.00;95.50
51884;DHT22;37915;53.254;6.598;2022-07-17T12:41:43;26.30;96.00
51884;DHT22;37915;53.254;6.598;2022-07-17T12:44:08;26.40;94.70
51884;DHT22;37915;53.254;6.598;2022-07-17T12:46:34;26.20;95.10
51884;DHT22;37915;53.254;6.598;2022-07-17T12:48:59;26.30;95.00
51884;DHT22;37915;53.254;6.598;2022-07-17T12:51:25;26.40;95.00
51884;DHT22;37915;53.254;6.598;2022-07-17T12:53:51;26.60;94.40
51884;DHT22;37915;53.254;6.598;2022-07-17T12:56:16;26.80;94.80
51884;DHT22;37915;53.254;6.598;2022-07-17T12:58:42;26.80;93.40
51884;DHT22;37915;53.254;6.598;2022-07-17T13:01:08;27.40;93.20
51884;DHT22;37915;53.254;6.598;2022-07-17T13:03:34;27.40;92.70
51884;DHT22;37915;53.254;6.598;2022-07-17T13:05:59;27.40;91.80
51884;DHT22;37915;53.254;6.598;2022-07-17T13:08:26;27.10;91.40
51884;DHT22;37915;53.254;6.598;2022-07-17T13:10:52;26.90;91.20
51884;DHT22;37915;53.254;6.598;2022-07-17T13:13:17;27.20;92.20
51884;DHT22;37915;53.254;6.598;2022-07-17T13:15:43;27.20;92.00
51884;DHT22;37915;53.254;6.598;2022-07-17T13:18:09;27.80;90.80
51884;DHT22;37915;53.254;6.598;2022-07-17T13:20:34;27.30;90.90
51884;DHT22;37915;53.254;6.598;2022-07-17T13:23:00;27.50;90.60
51884;DHT22;37915;53.254;6.598;2022-07-17T13:25:25;28.90;90.70
51884;DHT22;37915;53.254;6.598;2022-07-17T13:27:51;27.60;90.90
51884;DHT22;37915;53.254;6.598;2022-07-17T13:30:17;27.80;89.80
51884;DHT22;37915;53.254;6.598;2022-07-17T13:32:42;27.60;89.30
51884;DHT22;37915;53.254;6.598;2022-07-17T13:35:08;27.60;90.10
51884;DHT22;37915;53.254;6.598;2022-07-17T13:37:33;27.70;87.90
51884;DHT22;37915;53.254;6.598;2022-07-17T13:39:59;27.80;89.40
51884;DHT22;37915;53.254;6.598;2022-07-17T13:42:24;27.80;89.60
51884;DHT22;37915;53.254;6.598;2022-07-17T13:44:50;28.40;89.90
51884;DHT22;37915;53.254;6.598;2022-07-17T13:47:16;28.10;88.20
51884;DHT22;37915;53.254;6.598;2022-07-17T13:49:41;28.00;87.70
51884;DHT22;37915;53.254;6.598;2022-07-17T13:52:07;27.90;89.00
51884;DHT22;37915;53.254;6.598;2022-07-17T13:54:32;27.60;90.10
51884;DHT22;37915;53.254;6.598;2022-07-17T13:56:58;27.90;89.10
51884;DHT22;37915;53.254;6.598;2022-07-17T13:59:25;27.80;90.50
51884;DHT22;37915;53.254;6.598;2022-07-17T14:01:51;27.90;87.90
51884;DHT22;37915;53.254;6.598;2022-07-17T14:04:16;28.00;90.10
51884;DHT22;37915;53.254;6.598;2022-07-17T14:06:42;27.90;88.80
51884;DHT22;37915;53.254;6.598;2022-07-17T14:09:07;28.00;88.40
51884;DHT22;37915;53.254;6.598;2022-07-17T14:11:34;28.40;88.80
51884;DHT22;37915;53.254;6.598;2022-07-17T14:14:00;28.40;87.30
51884;DHT22;37915;53.254;6.598;2022-07-17T14:16:26;28.30;86.90
51884;DHT22;37915;53.254;6.598;2022-07-17T14:18:51;28.40;88.00
51884;DHT22;37915;53.254;6.598;2022-07-17T14:21:33;28.30;87.70
51884;DHT22;37915;53.254;6.598;2022-07-17T14:23:59;28.60;86.80
51884;DHT22;37915;53.254;6.598;2022-07-17T14:26:25;28.60;86.10
51884;DHT22;37915;53.254;6.598;2022-07-17T14:28:51;28.50;87.00
51884;DHT22;37915;53.254;6.598;2022-07-17T14:31:16;28.30;87.80
51884;DHT22;37915;53.254;6.598;2022-07-17T14:33:42;28.60;86.60
51884;DHT22;37915;53.254;6.598;2022-07-17T14:36:08;28.40;87.40
51884;DHT22;37915;53.254;6.598;2022-07-17T14:38:34;28.50;87.10
51884;DHT22;37915;53.254;6.598;2022-07-17T14:41:00;28.80;87.80
51884;DHT22;37915;53.254;6.598;2022-07-17T14:43:25;28.10;87.00
51884;DHT22;37915;53.254;6.598;2022-07-17T14:45:51;27.90;87.00
51884;DHT22;37915;53.254;6.598;2022-07-17T14:48:16;27.80;88.40
51884;DHT22;37915;53.254;6.598;2022-07-17T14:50:42;27.60;88.40
51884;DHT22;37915;53.254;6.598;2022-07-17T14:53:08;27.60;89.80
51884;DHT22;37915;53.254;6.598;2022-07-17T14:55:33;27.50;90.30
51884;DHT22;37915;53.254;6.598;2022-07-17T14:57:59;27.70;90.60
51884;DHT22;37915;53.254;6.598;2022-07-17T15:00:24;27.70;88.90
51884;DHT22;37915;53.254;6.598;2022-07-17T15:02:50;27.60;88.20
51884;DHT22;37915;53.254;6.598;2022-07-17T15:05:15;27.60;89.70
51884;DHT22;37915;53.254;6.598;2022-07-17T15:07:41;27.50;89.60
51884;DHT22;37915;53.254;6.598;2022-07-17T15:10:07;27.50;89.90
51884;DHT22;37915;53.254;6.598;2022-07-17T15:12:33;27.40;90.10
51884;DHT22;37915;53.254;6.598;2022-07-17T15:14:58;27.40;89.60
51884;DHT22;37915;53.254;6.598;2022-07-17T15:17:24;27.60;90.40
51884;DHT22;37915;53.254;6.598;2022-07-17T15:19:49;27.30;89.70
51884;DHT22;37915;53.254;6.598;2022-07-17T15:22:15;27.30;90.30
51884;DHT22;37915;53.254;6.598;2022-07-17T15:24:40;27.50;90.10
51884;DHT22;37915;53.254;6.598;2022-07-17T15:27:06;27.50;89.30
51884;DHT22;37915;53.254;6.598;2022-07-17T15:29:32;27.20;90.10